Time;durP1;ratioP1;P1;durP2;ratioP2;P2;SDS_P1;SDS_P2;PMS_P1;PMS_P2;Temp;Humidity;BMP_temperature;BMP_pressure;BME280_temperature;BME280_humidity;BME280_pressure;Samples;Min_cycle;Max_cycle;Signal;HPM_P1;HPM_P2
2022/10/03 00:01:15;;;;;;;9.63;4.55;;;;;;;9.05;100.00;102475.66;4861374;29;20033;-60
2022/10/03 00:04:08;;;;;;;14.55;5.20;;;;;;;8.98;100.00;102472.06;4861218;29;20165;-60
2022/10/03 00:07:06;;;;;;;9.20;5.10;;;;;;;8.93;100.00;102475.44;4861146;29;20049;-59
2022/10/03 00:09:38;;;;;;;14.95;5.78;;;;;;;8.87;100.00;102463.13;4860510;29;20054;-60
2022/10/03 00:12:30;;;;;;;15.07;5.10;;;;;;;8.89;100.00;102471.00;4861022;29;20101;-60
2022/10/03 00:15:14;;;;;;;16.55;5.53;;;;;;;8.87;100.00;102467.47;4868460;29;20053;-61
2022/10/03 00:18:09;;;;;;;10.45;5.30;;;;;;;8.87;100.00;102470.06;4861173;29;20357;-60
2022/10/03 00:20:37;;;;;;;10.68;4.53;;;;;;;8.81;100.00;102457.81;4861003;29;20045;-60
2022/10/03 00:23:15;;;;;;;9.85;4.90;;;;;;;8.80;100.00;102474.31;4860820;29;20049;-60
2022/10/03 00:26:29;;;;;;;13.32;5.47;;;;;;;8.81;100.00;102464.75;4860897;29;20037;-61
2022/10/03 00:28:54;;;;;;;11.85;5.10;;;;;;;8.80;100.00;102471.72;4860711;29;20049;-60
2022/10/03 00:31:34;;;;;;;17.00;5.50;;;;;;;8.76;100.00;102476.81;4860697;29;20048;-60
2022/10/03 00:34:00;;;;;;;15.85;5.93;;;;;;;8.76;100.00;102484.66;4860707;29;20077;-60
2022/10/03 00:36:47;;;;;;;11.80;5.30;;;;;;;8.79;100.00;102479.50;4860776;29;20046;-60
2022/10/03 00:39:47;;;;;;;12.73;5.47;;;;;;;8.78;100.00;102482.97;4860637;29;20043;-60
2022/10/03 00:42:18;;;;;;;13.73;5.57;;;;;;;8.61;100.00;102474.78;4860617;29;20135;-60
2022/10/03 00:44:46;;;;;;;17.05;5.75;;;;;;;8.72;100.00;102495.03;4860470;29;20478;-60
2022/10/03 00:47:49;;;;;;;8.88;5.07;;;;;;;8.72;100.00;102499.38;4860562;29;20033;-60
2022/10/03 00:50:35;;;;;;;12.57;5.20;;;;;;;8.69;100.00;102494.06;4860249;29;20377;-60
2022/10/03 00:53:12;;;;;;;12.20;4.95;;;;;;;8.66;100.00;102500.09;4860552;29;20132;-60
2022/10/03 00:56:15;;;;;;;14.82;5.43;;;;;;;8.66;100.00;102500.09;4860560;29;20038;-60
2022/10/03 00:59:11;;;;;;;14.45;5.85;;;;;;;8.61;100.00;102511.31;4860260;29;20034;-60
2022/10/03 01:01:48;;;;;;;12.60;5.13;;;;;;;8.51;100.00;102505.00;4860448;29;20033;-60
2022/10/03 01:04:46;;;;;;;13.02;5.72;;;;;;;8.55;100.00;102514.66;4860091;29;20352;-60
2022/10/03 01:07:48;;;;;;;14.60;5.13;;;;;;;8.56;100.00;102515.56;4860362;29;20033;-60
2022/10/03 01:10:29;;;;;;;10.75;5.40;;;;;;;8.55;100.00;102508.56;4860137;29;20468;-60
2022/10/03 01:13:18;;;;;;;9.90;5.28;;;;;;;8.54;100.00;102523.34;4860047;29;20137;-60
2022/10/03 01:16:20;;;;;;;13.95;5.40;;;;;;;8.52;100.00;102527.66;4859766;29;20781;-60
2022/10/03 01:19:01;;;;;;;13.45;5.65;;;;;;;8.42;100.00;102519.59;4859889;29;20120;-60
2022/10/03 01:21:44;;;;;;;14.85;5.63;;;;;;;8.52;100.00;102530.25;4859428;29;20037;-60
2022/10/03 01:24:22;;;;;;;13.20;5.50;;;;;;;8.51;100.00;102531.09;4859935;29;20127;-60
2022/10/03 01:27:06;;;;;;;13.18;5.65;;;;;;;8.54;100.00;102538.13;4859977;29;20037;-60
2022/10/03 01:33:14;;;;;;;12.35;5.97;;;;;;;8.49;100.00;102537.13;4860066;29;20165;-60
2022/10/03 01:35:45;;;;;;;11.70;5.32;;;;;;;8.49;100.00;102530.19;4859755;29;20124;-60
2022/10/03 01:38:37;;;;;;;11.27;5.13;;;;;;;8.48;100.00;102538.00;4859533;29;20069;-60
2022/10/03 01:41:10;;;;;;;14.43;6.03;;;;;;;8.48;100.00;102536.28;4859789;29;20093;-59
2022/10/03 01:43:48;;;;;;;14.90;6.47;;;;;;;8.44;100.00;102534.44;4859746;29;20120;-60
2022/10/03 01:46:27;;;;;;;16.60;6.03;;;;;;;8.43;100.00;102534.41;4859716;29;20033;-60
2022/10/03 01:49:32;;;;;;;13.23;5.60;;;;;;;8.46;100.00;102540.56;4859521;29;20132;-60
2022/10/03 01:52:19;;;;;;;16.75;6.50;;;;;;;8.44;100.00;102539.66;4860369;29;20053;-60
2022/10/03 01:55:03;;;;;;;13.40;5.50;;;;;;;8.37;100.00;102537.75;4859284;29;20494;-60
2022/10/03 01:57:43;;;;;;;16.85;6.00;;;;;;;8.27;100.00;102530.53;4859551;29;20097;-61
2022/10/03 02:00:19;;;;;;;12.85;6.15;;;;;;;8.36;100.00;102539.47;4859414;29;20052;-60
2022/10/03 02:03:11;;;;;;;15.55;6.85;;;;;;;8.37;100.00;102541.22;4859474;29;20053;-60
2022/10/03 02:06:17;;;;;;;11.57;5.93;;;;;;;8.36;100.00;102535.97;4859141;29;20049;-60
2022/10/03 02:08:45;;;;;;;13.73;6.30;;;;;;;8.35;100.00;102536.81;4859099;29;20057;-61
2022/10/03 02:11:26;;;;;;;14.55;7.00;;;;;;;8.39;100.00;102543.88;4859144;29;20046;-60
2022/10/03 02:13:54;;;;;;;13.02;6.30;;;;;;;8.36;100.00;102542.06;4859353;29;20042;-60
2022/10/03 02:16:31;;;;;;;16.88;5.85;;;;;;;8.36;100.00;102546.41;4859228;29;20543;-60
2022/10/03 02:19:11;;;;;;;12.23;5.90;;;;;;;8.32;100.00;102545.44;4859468;29;20041;-60
2022/10/03 02:22:12;;;;;;;18.75;6.95;;;;;;;8.34;100.00;102551.59;4858943;29;20518;-60
2022/10/03 02:24:48;;;;;;;13.05;6.70;;;;;;;8.36;100.00;102544.69;4864835;29;20052;-60
2022/10/03 02:27:56;;;;;;;18.58;6.55;;;;;;;8.36;100.00;102543.81;4859343;29;20037;-60
2022/10/03 02:30:37;;;;;;;12.20;6.32;;;;;;;8.33;100.00;102543.72;4875052;29;20045;-60
2022/10/03 02:33:36;;;;;;;17.55;6.28;;;;;;;8.28;100.00;102543.59;4859692;29;20037;-60
2022/10/03 02:36:31;;;;;;;16.95;6.57;;;;;;;8.25;100.00;102540.94;4862701;29;20136;-59
2022/10/03 02:39:20;;;;;;;13.15;6.38;;;;;;;8.23;100.00;102546.94;4862614;29;20445;-60
2022/10/03 02:42:04;;;;;;;10.60;5.93;;;;;;;8.22;100.00;102546.06;4862800;29;20105;-59
2022/10/03 02:44:44;;;;;;;13.43;6.35;;;;;;;8.18;100.00;102554.66;4862278;29;20061;-60
2022/10/03 02:47:28;;;;;;;13.80;7.20;;;;;;;8.13;100.00;102542.38;4861955;29;20353;-58
2022/10/03 02:50:21;;;;;;;13.18;6.20;;;;;;;8.12;100.00;102535.41;4862311;29;20048;-60
2022/10/03 02:53:06;;;;;;;12.82;6.10;;;;;;;8.11;100.00;102544.94;4862617;29;20041;-59
2022/10/03 02:56:11;;;;;;;13.32;6.47;;;;;;;8.10;100.00;102539.69;4862682;29;20038;-60
2022/10/03 02:58:58;;;;;;;12.07;6.60;;;;;;;8.07;100.00;102543.09;4862465;29;20033;-59
2022/10/03 03:01:57;;;;;;;13.77;6.32;;;;;;;8.04;100.00;102537.81;4862372;29;20102;-60
2022/10/03 03:04:58;;;;;;;14.10;6.30;;;;;;;8.02;100.00;102535.16;4862345;29;20113;-59
2022/10/03 03:07:50;;;;;;;12.25;6.70;;;;;;;7.86;100.00;102522.59;4862408;29;20501;-60
2022/10/03 03:10:36;;;;;;;15.80;6.72;;;;;;;7.85;100.00;102520.84;4862319;29;20109;-60
2022/10/03 03:13:14;;;;;;;16.10;6.72;;;;;;;7.92;100.00;102541.00;4862168;29;20038;-59
2022/10/03 03:15:51;;;;;;;12.45;7.05;;;;;;;7.92;100.00;102541.00;4862157;29;20041;-59
2022/10/03 03:18:53;;;;;;;16.52;7.50;;;;;;;7.91;100.00;102541.84;4862182;29;20045;-60
2022/10/03 03:21:39;;;;;;;13.48;6.47;;;;;;;7.90;100.00;102550.50;4862006;29;20120;-60
2022/10/03 03:24:32;;;;;;;15.68;7.13;;;;;;;7.87;100.00;102557.34;4861948;29;20116;-59
2022/10/03 03:27:12;;;;;;;11.40;6.65;;;;;;;7.88;100.00;102556.53;4861943;29;20037;-59
2022/10/03 03:30:02;;;;;;;12.75;6.80;;;;;;;7.86;100.00;102540.84;4861998;29;20048;-60
2022/10/03 03:32:41;;;;;;;17.38;6.88;;;;;;;7.88;100.00;102551.31;4861840;29;20040;-60
2022/10/03 03:35:27;;;;;;;13.73;6.55;;;;;;;7.85;100.00;102551.22;4862071;29;20457;-60
2022/10/03 03:37:52;;;;;;;12.82;6.82;;;;;;;7.84;100.00;102552.94;4861830;29;20046;-59
2022/10/03 03:41:02;;;;;;;12.70;7.07;;;;;;;7.84;100.00;102560.78;4861777;29;20449;-60
2022/10/03 03:43:39;;;;;;;13.77;6.80;;;;;;;7.83;100.00;102560.72;4861671;29;20330;-60
2022/10/03 03:46:37;;;;;;;10.95;6.70;;;;;;;7.76;100.00;102554.50;4860607;29;20325;-60
2022/10/03 03:49:26;;;;;;;13.07;6.82;;;;;;;7.79;100.00;102548.50;4861204;29;20046;-60
2022/10/03 03:52:03;;;;;;;14.38;6.95;;;;;;;7.77;100.00;102556.25;4861408;29;20474;-60
2022/10/03 03:54:58;;;;;;;14.27;7.03;;;;;;;7.74;100.00;102558.78;4861430;29;20048;-60
2022/10/03 03:57:32;;;;;;;11.68;6.45;;;;;;;7.75;100.00;102557.06;4861193;29;20072;-60
2022/10/03 03:59:58;;;;;;;13.98;6.90;;;;;;;7.73;100.00;102554.41;4861404;29;20402;-60
2022/10/03 04:02:42;;;;;;;12.40;6.80;;;;;;;7.72;100.00;102555.25;4861237;29;20128;-60
2022/10/03 04:05:31;;;;;;;11.57;6.93;;;;;;;7.57;100.00;102542.72;4861284;29;20056;-61
2022/10/03 04:08:32;;;;;;;12.68;6.90;;;;;;;7.68;100.00;102558.63;4860978;29;20477;-60
2022/10/03 04:11:30;;;;;;;16.30;7.07;;;;;;;7.69;100.00;102570.81;4876922;29;20426;-60
2022/10/03 04:14:13;;;;;;;11.65;6.38;;;;;;;7.66;100.00;102569.00;4874587;29;20041;-60
2022/10/03 04:20:04;;;;;;;13.35;6.60;;;;;;;7.63;100.00;102568.03;4860940;29;20163;-59
2022/10/03 04:22:39;;;;;;;12.65;6.63;;;;;;;7.63;100.00;102571.50;4861028;29;20365;-60
2022/10/03 04:25:19;;;;;;;16.17;7.68;;;;;;;7.70;100.00;102569.97;4860782;29;20148;-60
2022/10/03 04:28:12;;;;;;;15.70;6.85;;;;;;;7.79;100.00;102570.22;4861031;29;20368;-60
2022/10/03 04:31:02;;;;;;;16.52;7.07;;;;;;;7.77;100.00;102565.81;4860543;29;20116;-60
2022/10/03 04:33:33;;;;;;;17.42;6.60;;;;;;;7.73;100.00;102570.03;4860856;29;20052;-59
2022/10/03 04:36:31;;;;;;;15.40;6.65;;;;;;;7.72;100.00;102567.41;4860687;29;20037;-60
2022/10/03 04:39:02;;;;;;;12.43;6.18;;;;;;;7.69;100.00;102573.41;4860734;29;20048;-60
2022/10/03 04:41:39;;;;;;;12.52;6.47;;;;;;;7.65;100.00;102567.22;4860629;29;20029;-59
2022/10/03 04:44:47;;;;;;;10.15;6.45;;;;;;;7.64;100.00;102573.28;4860665;29;20128;-60
2022/10/03 04:47:41;;;;;;;13.68;6.93;;;;;;;7.60;100.00;102562.75;4860740;29;20110;-60
2022/10/03 04:50:25;;;;;;;14.10;6.30;;;;;;;7.59;100.00;102566.22;4859385;29;20049;-59
2022/10/03 04:53:08;;;;;;;13.23;6.55;;;;;;;7.56;100.00;102577.44;4860318;29;20369;-60
2022/10/03 04:55:46;;;;;;;15.18;6.68;;;;;;;7.54;100.00;102566.06;4860284;29;20113;-59
2022/10/03 04:58:34;;;;;;;12.05;6.20;;;;;;;7.61;100.00;102564.53;4860278;29;20097;-60
2022/10/03 05:01:21;;;;;;;14.05;6.50;;;;;;;7.71;100.00;102569.13;4860119;29;20670;-60
2022/10/03 05:04:10;;;;;;;17.05;6.60;;;;;;;7.74;100.00;102563.13;4859935;29;20049;-60
2022/10/03 05:06:46;;;;;;;11.60;6.20;;;;;;;7.72;100.00;102568.28;4859898;29;20042;-60
2022/10/03 05:09:31;;;;;;;14.77;6.47;;;;;;;7.69;100.00;102566.47;4859966;29;20120;-60
2022/10/03 05:12:12;;;;;;;16.60;6.40;;;;;;;7.69;100.00;102573.41;4859587;29;20037;-60
2022/10/03 05:14:48;;;;;;;11.32;6.07;;;;;;;7.66;100.00;102571.59;4859216;29;20389;-61
2022/10/03 05:17:25;;;;;;;12.27;6.50;;;;;;;7.64;100.00;102578.50;4859819;29;20045;-61
2022/10/03 05:20:11;;;;;;;12.65;6.13;;;;;;;7.61;100.00;102581.03;4860001;29;20048;-60
2022/10/03 05:22:55;;;;;;;15.00;6.88;;;;;;;7.63;100.00;102586.25;4859889;29;20128;-60
2022/10/03 05:25:57;;;;;;;13.77;6.63;;;;;;;7.68;100.00;102582.94;4859381;29;20056;-60
2022/10/03 05:28:32;;;;;;;;;;;;;;;7.71;100.00;102583.88;4860062;29;20049;-60
2022/10/03 05:31:11;;;;;;;11.93;5.88;;;;;;;7.65;100.00;102589.78;4859253;29;20370;-59
2022/10/03 05:33:50;;;;;;;14.55;6.40;;;;;;;7.64;100.00;102593.25;4859591;29;20033;-60
2022/10/03 05:36:56;;;;;;;17.23;6.30;;;;;;;7.64;100.00;102596.72;4859688;29;20044;-59
2022/10/03 05:39:43;;;;;;;12.98;6.28;;;;;;;7.61;100.00;102601.88;4864545;29;20042;-62
2022/10/03 05:42:36;;;;;;;11.00;6.10;;;;;;;7.61;100.00;102601.00;4840884;29;20352;-60
2022/10/03 05:45:24;;;;;;;14.68;6.63;;;;;;;7.59;100.00;102600.97;4841085;29;20034;-61
2022/10/03 05:48:08;;;;;;;12.30;6.25;;;;;;;7.60;100.00;102612.25;4840852;29;20037;-59
2022/10/03 05:51:07;;;;;;;16.13;6.78;;;;;;;7.71;100.00;102610.81;4840739;29;20105;-60
2022/10/03 05:53:47;;;;;;;11.73;6.88;;;;;;;7.71;100.00;102607.31;4841070;29;20045;-60
2022/10/03 05:56:15;;;;;;;14.95;6.55;;;;;;;7.72;100.00;102603.88;4841027;29;20076;-60
2022/10/03 05:58:56;;;;;;;12.20;6.40;;;;;;;7.73;100.00;102606.53;4840848;29;20045;-61
2022/10/03 06:01:59;;;;;;;12.15;6.38;;;;;;;7.73;100.00;102606.53;4840801;29;20038;-60
2022/10/03 06:04:52;;;;;;;15.25;6.28;;;;;;;7.75;100.00;102610.06;4840866;29;20040;-59
2022/10/03 06:08:00;;;;;;;14.05;7.05;;;;;;;7.86;100.00;102613.81;4840724;29;20030;-59
2022/10/03 06:10:26;;;;;;;11.45;6.63;;;;;;;7.95;100.00;102621.00;4840820;29;20068;-60
2022/10/03 06:13:03;;;;;;;13.85;6.75;;;;;;;7.95;100.00;102610.59;4840736;29;20129;-60
2022/10/03 06:15:53;;;;;;;14.18;6.78;;;;;;;8.06;100.00;102622.16;4840608;29;20370;-59
2022/10/03 06:18:48;;;;;;;14.80;7.22;;;;;;;8.13;100.00;102623.22;4840717;29;20121;-59
2022/10/03 06:21:32;;;;;;;15.07;7.28;;;;;;;8.23;100.00;102630.41;4860755;29;20425;-59
2022/10/03 06:24:39;;;;;;;16.10;8.25;;;;;;;8.28;100.00;102620.97;4873448;29;20037;-59
2022/10/03 06:27:16;;;;;;;14.95;7.45;;;;;;;8.32;100.00;102633.25;4888980;29;20060;-60
2022/10/03 06:30:20;;;;;;;15.05;7.53;;;;;;;8.44;100.00;102630.09;4876748;29;20048;-59
2022/10/03 06:33:04;;;;;;;10.38;6.47;;;;;;;8.46;100.00;102626.66;4877379;29;20456;-60
2022/10/03 06:35:51;;;;;;;14.93;7.65;;;;;;;8.44;100.00;102633.56;4877484;29;20115;-59
2022/10/03 06:38:43;;;;;;;15.20;7.85;;;;;;;8.40;100.00;102636.06;4877234;29;20052;-59
2022/10/03 06:41:29;;;;;;;;;;;;;;;8.44;100.00;102637.91;4878006;29;20040;-60
2022/10/03 06:44:28;;;;;;;14.65;8.05;;;;;;;8.50;100.00;102633.69;4885168;29;19919;-59
2022/10/03 06:47:12;;;;;;;19.80;8.63;;;;;;;8.75;100.00;102634.28;4877361;29;20033;-59
2022/10/03 06:50:17;;;;;;;18.10;8.90;;;;;;;8.88;100.00;102631.97;4860442;29;20464;-59
2022/10/03 06:53:00;;;;;;;21.45;8.43;;;;;;;8.94;100.00;102632.13;4858259;29;20120;-59
2022/10/03 06:55:38;;;;;;;15.88;8.70;;;;;;;9.04;100.00;102633.19;4858984;29;20042;-59
2022/10/03 06:58:48;;;;;;;18.23;8.57;;;;;;;9.11;100.00;102629.00;4858808;29;20045;-60
2022/10/03 07:01:49;;;;;;;20.17;8.68;;;;;;;9.34;100.00;102638.19;4857228;29;20045;-59
2022/10/03 07:04:17;;;;;;;17.40;8.10;;;;;;;9.49;100.00;102637.63;4858966;29;20037;-58
2022/10/03 07:06:47;;;;;;;18.75;8.20;;;;;;;9.59;100.00;102642.16;4858805;29;20418;-59
2022/10/03 07:09:33;;;;;;;20.63;8.30;;;;;;;9.64;100.00;102636.19;4858661;29;20057;-59
2022/10/03 07:12:32;;;;;;;15.82;8.20;;;;;;;9.79;100.00;102638.19;4858653;29;20101;-59
2022/10/03 07:15:25;;;;;;;16.40;8.27;;;;;;;9.89;100.00;102639.22;4858696;29;20120;-59
2022/10/03 07:17:59;;;;;;;;;;;;;;;10.02;100.00;102641.22;4858674;29;20453;-59
2022/10/03 07:20:43;;;;;;;13.20;8.63;;;;;;;10.15;100.00;102645.81;4859449;29;19954;-59
2022/10/03 07:23:31;;;;;;;17.00;8.07;;;;;;;10.21;100.00;102639.84;4862098;29;20041;-59
2022/10/03 07:26:21;;;;;;;15.77;8.07;;;;;;;10.26;100.00;102646.03;4861780;29;20037;-58
2022/10/03 07:29:10;;;;;;;14.15;7.85;;;;;;;10.29;100.00;102651.31;4861599;29;20438;-59
2022/10/03 07:32:13;;;;;;;16.27;8.05;;;;;;;10.32;100.00;102651.38;4861763;29;20052;-59
2022/10/03 07:35:15;;;;;;;16.77;8.23;;;;;;;10.39;100.00;102650.63;4861647;29;20112;-59
2022/10/03 07:40:39;;;;;;;14.63;7.70;;;;;;;10.65;100.00;102657.13;4861923;29;20056;-59
2022/10/03 07:43:31;;;;;;;13.73;7.37;;;;;;;10.66;100.00;102651.03;4861539;29;20048;-58
2022/10/03 07:46:03;;;;;;;15.35;7.57;;;;;;;10.71;100.00;102654.63;4861645;29;20365;-59
2022/10/03 07:48:54;;;;;;;14.00;7.57;;;;;;;10.74;100.00;102661.63;4861806;29;20037;-58
2022/10/03 07:51:34;;;;;;;15.38;8.07;;;;;;;10.81;100.00;102661.75;4861538;29;20045;-58
2022/10/03 07:54:05;;;;;;;13.52;7.72;;;;;;;10.87;100.00;102674.06;4861385;29;20173;-58
2022/10/03 07:56:59;;;;;;;16.75;7.63;;;;;;;10.84;100.00;102650.44;4861638;29;20041;-59
2022/10/03 07:59:46;;;;;;;12.90;7.90;;;;;;;11.11;100.00;102673.50;4861280;29;20403;-59
2022/10/03 08:02:31;;;;;;;17.15;9.10;;;;;;;11.22;100.00;102650.97;4861416;29;20469;-58
2022/10/03 08:05:31;;;;;;;16.73;9.02;;;;;;;11.36;100.00;102669.47;4861261;29;20030;-58
2022/10/03 08:08:21;;;;;;;17.00;8.90;;;;;;;11.55;100.00;102670.59;4859064;29;20136;-59
2022/10/03 08:11:08;;;;;;;17.10;8.82;;;;;;;11.74;100.00;102669.94;4861179;29;20355;-59
2022/10/03 08:14:11;;;;;;;17.20;8.25;;;;;;;12.05;100.00;102674.66;4860910;29;20033;-59
2022/10/03 08:17:05;;;;;;;;;;;;;;;12.03;100.00;102671.16;4861547;29;20130;-60
2022/10/03 08:20:04;;;;;;;15.93;8.23;;;;;;;11.98;100.00;102678.09;4861061;29;20343;-60
2022/10/03 08:23:07;;;;;;;17.35;8.85;;;;;;;12.10;100.00;102674.72;4860702;29;20041;-58
2022/10/03 08:26:09;;;;;;;17.80;8.07;;;;;;;12.46;100.00;102666.28;4861007;29;20045;-59
2022/10/03 08:28:49;;;;;;;15.43;7.72;;;;;;;12.63;100.00;102674.28;4860795;29;20029;-59
2022/10/03 08:31:36;;;;;;;16.50;7.68;;;;;;;12.65;100.00;102669.91;4860573;29;20033;-59
2022/10/03 08:34:17;;;;;;;14.27;7.22;;;;;;;12.81;100.00;102671.81;4860791;29;20041;-59
2022/10/03 08:37:03;;;;;;;15.25;7.30;;;;;;;12.98;100.00;102674.53;4860874;29;20052;-59
2022/10/03 08:40:10;;;;;;;18.00;7.75;;;;;;;13.04;100.00;102678.06;4860454;29;20045;-59
2022/10/03 08:43:18;;;;;;;13.65;7.28;;;;;;;13.11;100.00;102677.25;4860345;29;20102;-59
2022/10/03 08:45:54;;;;;;;12.52;6.90;;;;;;;13.30;100.00;102680.00;4860589;29;20041;-59
2022/10/03 08:48:46;;;;;;;12.82;7.25;;;;;;;13.49;100.00;102682.72;4860656;29;20047;-59
2022/10/03 08:51:39;;;;;;;14.23;6.03;;;;;;;13.65;100.00;102677.50;4860564;29;20043;-59
2022/10/03 08:54:31;;;;;;;14.55;6.50;;;;;;;13.76;100.00;102676.66;4860266;29;20038;-59
2022/10/03 08:57:06;;;;;;;14.48;5.82;;;;;;;14.08;100.00;102675.84;4860528;29;20033;-59
2022/10/03 08:59:36;;;;;;;11.95;6.30;;;;;;;14.27;99.82;102681.13;4860489;29;20148;-60
2022/10/03 09:02:26;;;;;;;13.18;5.22;;;;;;;14.40;98.18;102678.50;4859930;29;20204;-59
2022/10/03 09:05:16;;;;;;;10.55;4.97;;;;;;;14.47;97.16;102677.66;4860188;29;20044;-60
2022/10/03 09:08:05;;;;;;;11.63;5.07;;;;;;;14.58;95.03;102668.84;4860432;29;20044;-60
2022/10/03 09:11:09;;;;;;;11.05;4.22;;;;;;;14.75;95.58;102678.50;4875111;29;20065;-59
2022/10/03 09:14:05;;;;;;;7.80;4.00;;;;;;;15.03;95.41;102684.63;4911476;29;20044;-59
2022/10/03 09:16:53;;;;;;;8.45;4.30;;;;;;;15.20;95.05;102688.09;4911248;29;20046;-59
2022/10/03 09:19:33;;;;;;;8.57;3.95;;;;;;;15.31;91.86;102673.09;4915736;29;20468;-60
2022/10/03 09:22:31;;;;;;;10.82;3.53;;;;;;;15.56;93.53;102673.91;4897155;29;20059;-58
2022/10/03 09:25:18;;;;;;;7.65;3.28;;;;;;;15.72;90.42;102678.22;4915373;29;20760;-58
2022/10/03 09:28:13;;;;;;;8.18;3.13;;;;;;;15.74;88.61;102676.47;4915566;29;20043;-60
2022/10/03 09:31:02;;;;;;;11.95;3.10;;;;;;;15.87;90.04;102662.28;4907830;29;20551;-60
2022/10/03 09:33:43;;;;;;;10.80;2.80;;;;;;;16.05;88.68;102663.06;4915758;29;20115;-59
2022/10/03 09:36:23;;;;;;;9.88;2.53;;;;;;;16.34;88.70;102659.28;4915762;29;20437;-59
2022/10/03 09:38:55;;;;;;;8.30;2.28;;;;;;;16.41;85.41;102661.91;4915830;29;20051;-59
2022/10/03 09:41:23;;;;;;;;;;;;;;;16.29;87.24;102654.94;4916076;29;20036;-59
2022/10/03 09:44:13;;;;;;;13.25;2.63;;;;;;;16.12;85.52;102657.69;4914813;29;20002;-59
2022/10/03 09:49:58;;;;;;;9.25;2.13;;;;;;;15.76;81.33;102647.41;4915823;29;20055;-59
2022/10/03 09:53:02;;;;;;;8.52;1.90;;;;;;;15.70;84.92;102648.31;4914923;29;20047;-59
2022/10/03 09:56:00;;;;;;;12.00;2.10;;;;;;;15.68;82.10;102654.50;4915453;29;20036;-60
2022/10/03 09:58:54;;;;;;;7.65;2.08;;;;;;;15.63;83.80;102647.47;4915567;29;20131;-60
2022/10/03 10:01:23;;;;;;;7.78;1.88;;;;;;;15.78;84.04;102641.22;4915322;29;20044;-59
2022/10/03 10:04:14;;;;;;;6.40;2.05;;;;;;;15.90;84.16;102638.50;4915399;29;20036;-59
2022/10/03 10:06:48;;;;;;;7.47;2.40;;;;;;;16.00;82.27;102637.56;4915070;29;20044;-60
2022/10/03 10:09:24;;;;;;;8.38;2.45;;;;;;;16.05;83.77;102637.53;4914992;29;20090;-59
2022/10/03 10:11:59;;;;;;;8.00;2.08;;;;;;;16.06;82.70;102647.19;4915192;29;20040;-59
2022/10/03 10:14:39;;;;;;;8.63;2.08;;;;;;;16.00;82.53;102636.66;4915278;29;20421;-59
2022/10/03 10:17:21;;;;;;;9.52;2.20;;;;;;;15.87;82.90;102638.53;4915116;29;20040;-58
2022/10/03 10:19:47;;;;;;;11.73;2.00;;;;;;;15.78;81.69;102635.06;4915478;29;20063;-59
2022/10/03 10:22:39;;;;;;;5.93;2.00;;;;;;;15.67;83.40;102637.78;4914682;29;20451;-59
2022/10/03 10:25:27;;;;;;;8.18;2.13;;;;;;;15.59;85.70;102632.53;4915202;29;20064;-59
2022/10/03 10:28:22;;;;;;;6.82;1.80;;;;;;;15.51;83.28;102642.22;4915093;29;20354;-59
2022/10/03 10:31:15;;;;;;;7.30;1.88;;;;;;;15.38;85.74;102637.91;4914709;29;20474;-59
2022/10/03 10:34:08;;;;;;;9.70;2.20;;;;;;;15.27;82.91;102642.31;4915189;29;20035;-59
2022/10/03 10:37:17;;;;;;;8.30;2.05;;;;;;;15.21;84.86;102637.97;4915087;29;20039;-59
2022/10/03 10:40:27;;;;;;;7.18;2.30;;;;;;;15.30;86.28;102634.41;4864330;29;20057;-59
2022/10/03 10:43:26;;;;;;;8.18;1.80;;;;;;;15.29;85.03;102637.94;4887736;29;20049;-58
2022/10/03 10:46:10;;;;;;;7.50;1.90;;;;;;;15.27;86.07;102632.66;4915348;29;20036;-60
2022/10/03 10:49:13;;;;;;;6.25;1.42;;;;;;;15.44;84.25;102639.59;4914897;29;20032;-59
2022/10/03 10:52:26;;;;;;;4.88;1.40;;;;;;;15.40;81.38;102641.41;4914938;29;20046;-60
2022/10/03 10:55:23;;;;;;;9.88;2.03;;;;;;;15.54;83.49;102641.34;4864685;29;20138;-60
2022/10/03 10:58:45;;;;;;;6.20;1.70;;;;;;;15.64;80.55;102641.31;4918399;29;20043;-60
2022/10/03 11:01:49;;;;;;;7.53;1.95;;;;;;;15.73;81.27;102640.38;4918389;29;20032;-59
2022/10/03 11:04:36;;;;;;;10.38;1.75;;;;;;;15.81;80.40;102638.56;4915508;29;20134;-60
2022/10/03 11:07:40;;;;;;;6.50;1.70;;;;;;;15.93;80.72;102629.69;4918311;29;20044;-60
2022/10/03 11:10:26;;;;;;;8.77;1.98;;;;;;;16.03;78.37;102644.56;4918048;29;20070;-60
2022/10/03 11:13:29;;;;;;;8.32;1.70;;;;;;;16.14;78.66;102640.09;4918408;29;20044;-60
2022/10/03 11:16:22;;;;;;;7.82;1.60;;;;;;;16.42;76.08;102635.47;4918163;29;20028;-59
2022/10/03 11:19:06;;;;;;;7.97;1.70;;;;;;;16.78;76.29;102639.56;4918189;29;20036;-61
2022/10/03 11:21:37;;;;;;;6.95;1.50;;;;;;;16.99;75.89;102626.06;4917978;29;20047;-60
2022/10/03 11:24:41;;;;;;;9.75;1.83;;;;;;;17.12;75.85;102620.66;4917922;29;20083;-60
2022/10/03 11:27:25;;;;;;;7.75;1.60;;;;;;;17.25;72.85;102620.47;4897534;29;20729;-60
2022/10/03 11:30:06;;;;;;;5.03;1.42;;;;;;;17.33;72.09;102613.28;4917523;29;20435;-60
2022/10/03 11:32:47;;;;;;;6.97;1.35;;;;;;;17.41;71.69;102605.28;4917878;29;20452;-61
2022/10/03 11:35:24;;;;;;;5.30;1.80;;;;;;;17.46;68.45;102605.22;4918165;29;20032;-60
2022/10/03 11:38:14;;;;;;;4.50;1.20;;;;;;;17.40;69.13;102607.03;4918008;29;20040;-60
2022/10/03 11:40:42;;;;;;;5.20;1.30;;;;;;;17.42;66.30;102609.66;4918115;29;20107;-62
2022/10/03 11:43:33;;;;;;;5.68;1.50;;;;;;;17.52;67.58;102611.28;4917600;29;20123;-61
2022/10/03 11:46:26;;;;;;;6.72;1.42;;;;;;;17.62;67.93;102609.41;4917842;29;20032;-60
2022/10/03 11:49:05;;;;;;;5.80;1.13;;;;;;;17.63;64.58;102611.16;4917388;29;20103;-60
2022/10/03 11:51:44;;;;;;;4.65;1.40;;;;;;;17.71;65.95;102612.81;4917617;29;20048;-60
2022/10/03 11:54:26;;;;;;;3.42;1.17;;;;;;;17.91;68.27;102614.28;4917544;29;20058;-60
2022/10/03 11:57:06;;;;;;;8.93;1.90;;;;;;;18.04;65.96;102614.06;4917851;29;20047;-60
2022/10/03 11:59:46;;;;;;;7.88;1.58;;;;;;;17.77;63.79;102600.38;4917532;29;20115;-60
2022/10/03 12:02:19;;;;;;;7.40;1.42;;;;;;;17.75;63.81;102613.63;4917452;29;20036;-60
2022/10/03 12:04:53;;;;;;;5.50;1.33;;;;;;;17.78;63.73;102610.94;4917220;29;20055;-60
2022/10/03 12:10:32;;;;;;;8.15;1.55;;;;;;;17.91;63.96;102614.28;4917055;29;20095;-60
2022/10/03 12:12:58;;;;;;;7.38;1.30;;;;;;;17.86;66.02;102613.47;4917331;29;20091;-60
2022/10/03 12:15:57;;;;;;;9.93;1.73;;;;;;;18.17;67.03;102611.22;4917227;29;20448;-60
2022/10/03 12:18:41;;;;;;;6.72;1.30;;;;;;;18.24;67.16;102610.19;4902472;29;20040;-60
2022/10/03 12:21:21;;;;;;;6.28;1.48;;;;;;;18.52;64.47;102606.19;4917257;29;20119;-60
2022/10/03 12:23:55;;;;;;;7.30;1.83;;;;;;;18.77;64.49;102598.66;4917329;29;20043;-60
2022/10/03 12:26:48;;;;;;;7.45;2.00;;;;;;;18.90;63.59;102589.53;4917256;29;20046;-60
2022/10/03 12:29:15;;;;;;;;;;;;;;;19.06;63.26;102596.28;4917077;29;20046;-60
2022/10/03 12:32:09;;;;;;;4.15;1.30;;;;;;;18.96;63.84;102596.50;4916851;29;20425;-61
2022/10/03 12:34:57;;;;;;;3.08;1.00;;;;;;;18.87;65.28;102594.94;4916600;29;20036;-62
2022/10/03 12:37:44;;;;;;;8.05;1.77;;;;;;;18.63;63.60;102590.09;4916747;29;20103;-60
2022/10/03 12:40:32;;;;;;;8.02;1.55;;;;;;;18.24;62.23;102589.00;4916794;29;20047;-59
2022/10/03 12:42:57;;;;;;;5.80;1.55;;;;;;;17.98;65.46;102592.09;4916637;29;20117;-60
2022/10/03 12:45:34;;;;;;;7.03;1.63;;;;;;;17.83;64.71;102585.28;4916228;29;20080;-59
2022/10/03 12:48:21;;;;;;;4.63;1.45;;;;;;;17.73;63.07;102581.88;4916520;29;20044;-61
2022/10/03 12:50:55;;;;;;;5.53;1.30;;;;;;;17.71;65.84;102580.16;4916612;29;20096;-60
2022/10/03 12:53:30;;;;;;;7.75;1.80;;;;;;;17.66;64.09;102582.00;4916527;29;20043;-60
2022/10/03 12:56:14;;;;;;;4.70;1.38;;;;;;;17.78;66.09;102587.13;4916467;29;20062;-60
2022/10/03 12:58:55;;;;;;;6.53;1.90;;;;;;;17.89;65.35;102581.63;4916063;29;20367;-60
2022/10/03 13:01:57;;;;;;;8.57;1.90;;;;;;;17.83;65.19;102577.34;4916355;29;20036;-60
2022/10/03 13:04:41;;;;;;;7.45;1.90;;;;;;;17.73;65.73;102581.88;4916024;29;20183;-60